createdAt,value
2023-11-30T00:02:09.547Z,99611.44
2023-11-30T00:04:37.751Z,99618.38
2023-11-30T00:07:11.334Z,99621.91
2023-11-30T00:09:39.429Z,99615.88
2023-11-30T00:12:07.800Z,99614.22
2023-11-30T00:14:35.630Z,99618.53
2023-11-30T00:17:04.847Z,99619.47
2023-11-30T00:19:32.808Z,99620.28
2023-11-30T00:22:00.639Z,99614.22
2023-11-30T00:24:28.869Z,99616.00
2023-11-30T00:26:56.756Z,99612.53
2023-11-30T00:29:24.592Z,99605.69
2023-11-30T00:31:52.478Z,99615.19
2023-11-30T00:34:21.645Z,99619.56
2023-11-30T00:36:49.559Z,99620.34
2023-11-30T00:39:17.511Z,99615.13
2023-11-30T00:41:45.747Z,99622.13
2023-11-30T00:44:14.043Z,99616.00
2023-11-30T00:46:42.073Z,99615.13
2023-11-30T00:49:09.919Z,99622.94
2023-11-30T00:51:39.080Z,99619.47
2023-11-30T00:54:07.037Z,99611.59
2023-11-30T00:56:34.875Z,99625.47
2023-11-30T00:59:03.005Z,99626.38
2023-11-30T01:01:30.909Z,99629.84
2023-11-30T01:03:58.954Z,99637.72
2023-11-30T01:06:26.811Z,99636.91
2023-11-30T01:08:56.380Z,99638.63
2023-11-30T01:11:24.204Z,99635.16
2023-11-30T01:13:52.209Z,99643.84
2023-11-30T01:16:20.088Z,99640.38
2023-11-30T01:18:48.102Z,99643.84
2023-11-30T01:21:15.963Z,99639.50
2023-11-30T01:23:43.959Z,99636.03
2023-11-30T01:26:13.303Z,99643.91
2023-11-30T01:28:41.974Z,99634.28
2023-11-30T01:31:10.305Z,99627.38
2023-11-30T01:33:38.635Z,99629.09
2023-11-30T01:36:07.090Z,99629.13
2023-11-30T01:38:35.099Z,99630.91
2023-11-30T01:41:02.901Z,99637.88
2023-11-30T01:43:32.415Z,99639.56
2023-11-30T01:46:03.780Z,99636.16
2023-11-30T01:48:33.635Z,99640.53
2023-11-30T01:51:04.362Z,99642.22
2023-11-30T01:53:32.634Z,99639.63
2023-11-30T01:56:00.940Z,99631.81
2023-11-30T01:58:29.235Z,99639.63
2023-11-30T02:01:00.017Z,99647.38
2023-11-30T02:03:28.764Z,99640.47
2023-11-30T02:05:56.826Z,99645.63
2023-11-30T02:08:24.646Z,99644.78
2023-11-30T02:10:52.606Z,99644.78
2023-11-30T02:13:20.480Z,99638.69
2023-11-30T02:15:48.336Z,99630.06
2023-11-30T02:18:17.901Z,99633.56
2023-11-30T02:20:45.958Z,99635.34
2023-11-30T02:23:15.131Z,99632.72
2023-11-30T02:25:43.223Z,99634.38
2023-11-30T02:28:11.022Z,99627.47
2023-11-30T02:30:39.333Z,99631.78
2023-11-30T02:33:07.191Z,99627.44
2023-11-30T02:35:35.684Z,99622.22
2023-11-30T02:38:04.023Z,99627.44
2023-11-30T02:40:33.202Z,99623.09
2023-11-30T02:43:01.098Z,99616.13
2023-11-30T02:45:29.031Z,99612.69
2023-11-30T02:47:56.960Z,99611.88
2023-11-30T02:50:25.031Z,99610.97
2023-11-30T02:52:53.878Z,99605.78
2023-11-30T02:55:22.921Z,99603.13
2023-11-30T02:57:52.169Z,99602.25
2023-11-30T03:00:20.967Z,99606.63
2023-11-30T03:02:48.948Z,99602.31
2023-11-30T03:05:16.812Z,99595.31
2023-11-30T03:07:44.643Z,99604.03
2023-11-30T03:10:12.610Z,99602.25
2023-11-30T03:12:40.455Z,99599.66
2023-11-30T03:15:11.408Z,99601.44
2023-11-30T03:17:39.821Z,99589.31
2023-11-30T03:20:09.340Z,99596.28
2023-11-30T03:22:37.931Z,99599.69
2023-11-30T03:25:06.661Z,99591.03
2023-11-30T03:27:34.717Z,99594.50
2023-11-30T03:30:02.700Z,99589.31
2023-11-30T03:32:32.105Z,99590.19
2023-11-30T03:35:00.491Z,99594.50
2023-11-30T03:37:28.314Z,99587.56
2023-11-30T03:39:56.077Z,99583.28
2023-11-30T03:42:24.484Z,99584.16
2023-11-30T03:44:52.300Z,99579.84
2023-11-30T03:47:20.154Z,99581.56
2023-11-30T03:49:49.371Z,99570.34
2023-11-30T03:52:17.201Z,99579.06
2023-11-30T03:54:45.057Z,99572.09
2023-11-30T03:57:12.954Z,99578.22
2023-11-30T03:59:41.707Z,99574.75
2023-11-30T04:02:09.576Z,99580.81
2023-11-30T04:04:39.478Z,99576.50
2023-11-30T04:07:08.748Z,99573.06
2023-11-30T04:09:38.931Z,99568.72
2023-11-30T04:12:07.207Z,99567.88
2023-11-30T04:14:35.614Z,99575.66
2023-11-30T04:17:05.478Z,99570.47
2023-11-30T04:19:33.397Z,99569.66
2023-11-30T04:22:01.649Z,99566.22
2023-11-30T04:24:30.878Z,99578.38
2023-11-30T04:26:58.802Z,99566.22
2023-11-30T04:29:26.761Z,99571.44
2023-11-30T04:31:54.888Z,99573.22
2023-11-30T04:34:23.508Z,99568.13
2023-11-30T04:36:51.439Z,99565.53
2023-11-30T04:39:21.532Z,99562.06
2023-11-30T04:41:51.503Z,99575.00
2023-11-30T04:44:23.160Z,99577.56
2023-11-30T04:46:51.798Z,99574.91
2023-11-30T04:49:20.100Z,99586.91
2023-11-30T04:51:48.028Z,99579.06
2023-11-30T04:54:17.461Z,99572.09
2023-11-30T04:56:45.376Z,99578.09
2023-11-30T04:59:14.520Z,99581.44
2023-11-30T05:01:42.515Z,99570.13
2023-11-30T05:04:10.641Z,99565.69
2023-11-30T05:06:38.578Z,99580.31
2023-11-30T05:09:07.042Z,99575.03
2023-11-30T05:11:34.939Z,99580.13
2023-11-30T05:14:02.759Z,99580.88
2023-11-30T05:16:32.059Z,99571.28
2023-11-30T05:18:59.945Z,99581.63
2023-11-30T05:21:27.917Z,99577.19
2023-11-30T05:23:55.956Z,99585.78
2023-11-30T05:26:24.102Z,99584.88
2023-11-30T05:28:52.471Z,99585.63
2023-11-30T05:31:20.344Z,99583.81
2023-11-30T05:33:49.523Z,99588.13
2023-11-30T05:36:17.705Z,99592.44
2023-11-30T05:38:45.527Z,99593.25
2023-11-30T05:41:13.660Z,99587.19
2023-11-30T05:43:41.734Z,99597.56
2023-11-30T05:46:09.661Z,99594.09
2023-11-30T05:48:38.106Z,99595.84
2023-11-30T05:51:08.459Z,99601.03
2023-11-30T05:53:37.005Z,99594.09
2023-11-30T05:56:05.312Z,99601.91
2023-11-30T05:58:33.557Z,99605.38
2023-11-30T06:01:01.370Z,99601.03
2023-11-30T06:03:29.435Z,99601.06
2023-11-30T06:05:57.415Z,99597.53
2023-11-30T06:08:26.993Z,99603.66
2023-11-30T06:10:54.881Z,99607.91
2023-11-30T06:13:25.359Z,99605.25
2023-11-30T06:15:54.207Z,99606.13
2023-11-30T06:18:22.157Z,99606.16
2023-11-30T06:20:50.079Z,99616.56
2023-11-30T06:23:17.918Z,99614.84
2023-11-30T06:25:47.096Z,99613.09
2023-11-30T06:28:14.895Z,99618.31
2023-11-30T06:30:42.762Z,99619.22
2023-11-30T06:33:10.661Z,99625.28
2023-11-30T06:35:38.594Z,99633.06
2023-11-30T06:38:06.392Z,99633.94
2023-11-30T06:40:34.272Z,99628.81
2023-11-30T06:43:03.483Z,99631.41
2023-11-30T06:45:31.403Z,99632.28
2023-11-30T06:47:59.418Z,99633.25
2023-11-30T06:50:27.544Z,99632.44
2023-11-30T06:52:55.645Z,99628.13
2023-11-30T06:55:24.109Z,99635.16
2023-11-30T06:57:51.961Z,99640.38
2023-11-30T07:00:21.508Z,99648.22
2023-11-30T07:02:49.354Z,99646.53
2023-11-30T07:05:17.197Z,99642.28
2023-11-30T07:07:45.407Z,99649.25
2023-11-30T07:10:14.101Z,99652.78
2023-11-30T07:12:42.069Z,99649.38
2023-11-30T07:15:10.471Z,99654.66
2023-11-30T07:17:39.711Z,99650.41
2023-11-30T07:20:09.026Z,99645.22
2023-11-30T07:22:36.876Z,99642.69
2023-11-30T07:25:05.364Z,99647.13
2023-11-30T07:27:33.351Z,99651.47
2023-11-30T07:30:02.139Z,99654.13
2023-11-30T07:32:30.211Z,99667.25
2023-11-30T07:34:59.475Z,99663.88
2023-11-30T07:37:27.298Z,99663.03
2023-11-30T07:39:55.058Z,99663.94
2023-11-30T07:42:29.625Z,99670.13
2023-11-30T07:45:03.702Z,99674.53
2023-11-30T07:47:31.962Z,99673.75
2023-11-30T07:50:01.426Z,99673.81
2023-11-30T07:52:30.247Z,99666.94
2023-11-30T07:54:58.215Z,99665.25
2023-11-30T07:57:26.186Z,99665.31
2023-11-30T07:59:54.208Z,99677.53
2023-11-30T08:02:22.494Z,99672.38
2023-11-30T08:04:50.403Z,99675.09
2023-11-30T08:07:20.756Z,99666.50
2023-11-30T08:09:49.098Z,99660.50
2023-11-30T08:12:16.896Z,99664.03
2023-11-30T08:14:44.698Z,99657.22
2023-11-30T08:17:12.612Z,99659.94
2023-11-30T08:19:40.796Z,99653.09
2023-11-30T08:22:08.671Z,99656.69
2023-11-30T08:24:38.318Z,99662.91
2023-11-30T08:27:07.518Z,99665.56
2023-11-30T08:29:37.941Z,99666.53
2023-11-30T08:32:06.603Z,99652.81
2023-11-30T08:34:35.048Z,99652.97
2023-11-30T08:37:02.926Z,99660.91
2023-11-30T08:39:31.420Z,99661.97
2023-11-30T08:42:00.728Z,99656.97
2023-11-30T08:44:28.552Z,99663.19
2023-11-30T08:46:57.075Z,99656.47
2023-11-30T08:49:25.044Z,99646.22
2023-11-30T08:51:53.097Z,99644.66
2023-11-30T08:54:22.406Z,99653.50
2023-11-30T08:56:50.920Z,99651.03
2023-11-30T08:59:20.764Z,99654.72
2023-11-30T09:01:49.759Z,99652.25
2023-11-30T09:04:17.840Z,99652.44
2023-11-30T09:06:45.796Z,99655.28
2023-11-30T09:09:13.787Z,99650.41
2023-11-30T09:11:42.252Z,99643.94
2023-11-30T09:14:10.055Z,99640.00
2023-11-30T09:16:39.589Z,99646.28
2023-11-30T09:19:07.520Z,99643.94
2023-11-30T09:21:35.441Z,99634.69
2023-11-30T09:24:05.725Z,99635.84
2023-11-30T09:26:33.810Z,99639.69
2023-11-30T09:29:01.647Z,99637.41
2023-11-30T09:31:29.567Z,99635.19
2023-11-30T09:33:58.811Z,99634.75
2023-11-30T09:36:26.773Z,99637.69
2023-11-30T09:38:54.638Z,99643.22
2023-11-30T09:41:24.680Z,99636.34
2023-11-30T09:43:53.369Z,99640.69
2023-11-30T09:46:21.215Z,99645.97
2023-11-30T09:48:49.962Z,99638.13
2023-11-30T09:51:23.486Z,99634.63
2023-11-30T09:53:51.385Z,99637.22
2023-11-30T09:56:19.214Z,99630.03
2023-11-30T09:58:47.069Z,99628.16
2023-11-30T10:01:14.958Z,99627.22
2023-11-30T10:03:43.577Z,99620.16
2023-11-30T10:06:11.963Z,99606.31
2023-11-30T10:08:42.204Z,99608.09
2023-11-30T10:11:11.136Z,99606.34
2023-11-30T10:13:39.278Z,99599.34
2023-11-30T10:16:08.249Z,99602.69
2023-11-30T10:18:36.477Z,99596.44
2023-11-30T10:21:04.658Z,99594.59
2023-11-30T10:23:32.637Z,99597.19
2023-11-30T10:26:04.071Z,99592.72
2023-11-30T10:28:32.668Z,99587.41
2023-11-30T10:31:04.165Z,99587.41
2023-11-30T10:33:38.447Z,99584.81
2023-11-30T10:36:08.862Z,99576.97
2023-11-30T10:38:41.004Z,99577.84
2023-11-30T10:41:14.393Z,99572.50
2023-11-30T10:43:49.608Z,99568.91
2023-11-30T10:46:18.005Z,99557.53
2023-11-30T10:48:45.962Z,99563.63
2023-11-30T10:51:14.755Z,99553.09
2023-11-30T10:53:51.119Z,99540.84
2023-11-30T10:56:20.686Z,99559.00
2023-11-30T10:58:49.079Z,99559.84
2023-11-30T11:01:16.987Z,99559.78
2023-11-30T11:03:48.809Z,99553.63
2023-11-30T11:06:17.448Z,99546.69
2023-11-30T11:09:01.937Z,99537.16
2023-11-30T11:11:32.263Z,99545.91
2023-11-30T11:14:00.828Z,99541.56
2023-11-30T11:16:36.723Z,99536.44
2023-11-30T11:19:06.454Z,99530.34
2023-11-30T11:21:38.509Z,99532.97
2023-11-30T11:24:08.076Z,99537.38
2023-11-30T11:26:46.028Z,99538.16
2023-11-30T11:29:16.480Z,99528.56
2023-11-30T11:31:48.009Z,99528.53
2023-11-30T11:34:16.771Z,99531.09
2023-11-30T11:36:44.829Z,99531.06
2023-11-30T11:39:14.545Z,99530.16
2023-11-30T11:41:42.742Z,99537.03
2023-11-30T11:44:11.987Z,99539.53
2023-11-30T11:46:40.721Z,99527.31
2023-11-30T11:49:08.854Z,99528.97
2023-11-30T11:51:44.551Z,99531.59
2023-11-30T11:54:20.308Z,99523.72
2023-11-30T11:56:49.909Z,99526.34
2023-11-30T11:59:27.499Z,99524.59
2023-11-30T12:01:57.758Z,99521.91
2023-11-30T12:04:30.619Z,99524.44
2023-11-30T12:06:59.109Z,99532.25
2023-11-30T12:09:27.124Z,99527.03
2023-11-30T12:11:58.119Z,99519.22
2023-11-30T12:14:29.170Z,99512.25
2023-11-30T12:16:57.429Z,99520.97
2023-11-30T12:19:25.292Z,99516.63
2023-11-30T12:21:53.559Z,99529.56
2023-11-30T12:24:22.448Z,99524.38
2023-11-30T12:26:50.870Z,99520.88
2023-11-30T12:29:18.985Z,99524.34
2023-11-30T12:31:48.492Z,99519.13
2023-11-30T12:34:17.201Z,99517.41
2023-11-30T12:36:45.135Z,99524.41
2023-11-30T12:39:15.373Z,99525.31
2023-11-30T12:41:44.793Z,99527.09
2023-11-30T12:44:12.648Z,99526.28
2023-11-30T12:46:40.817Z,99525.44
2023-11-30T12:49:10.048Z,99531.56
2023-11-30T12:51:37.951Z,99534.16
2023-11-30T12:54:05.823Z,99535.03
2023-11-30T12:56:34.181Z,99535.03
2023-11-30T12:59:02.126Z,99534.16
2023-11-30T13:01:30.079Z,99538.44
2023-11-30T13:03:58.684Z,99539.28
2023-11-30T13:06:28.016Z,99548.81
2023-11-30T13:08:56.260Z,99545.22
2023-11-30T13:11:24.409Z,99542.53
2023-11-30T13:13:55.636Z,99552.06
2023-11-30T13:16:23.826Z,99551.06
2023-11-30T13:18:51.799Z,99553.66
2023-11-30T13:21:19.828Z,99551.81
2023-11-30T13:23:49.012Z,99556.19
2023-11-30T13:26:19.424Z,99549.13
2023-11-30T13:28:52.021Z,99550.84
2023-11-30T13:31:21.749Z,99553.41
2023-11-30T13:33:49.995Z,99556.88
2023-11-30T13:36:18.554Z,99555.94
2023-11-30T13:38:46.461Z,99555.94
2023-11-30T13:41:15.672Z,99562.88
2023-11-30T13:43:43.554Z,99555.06
2023-11-30T13:46:14.241Z,99556.78
2023-11-30T13:48:42.870Z,99549.84
2023-11-30T13:51:11.744Z,99554.16
2023-11-30T13:53:40.613Z,99546.31
2023-11-30T13:56:09.655Z,99551.53
2023-11-30T13:58:39.230Z,99545.44
2023-11-30T14:01:07.518Z,99541.03
2023-11-30T14:03:36.369Z,99544.47
2023-11-30T14:06:05.320Z,99550.50
2023-11-30T14:08:33.408Z,99543.50
2023-11-30T14:11:01.988Z,99552.19
2023-11-30T14:13:29.984Z,99543.47
2023-11-30T14:15:59.425Z,99550.38
2023-11-30T14:18:28.061Z,99546.03
2023-11-30T14:20:55.913Z,99543.41
2023-11-30T14:23:24.944Z,99546.00
2023-11-30T14:25:52.857Z,99547.69
2023-11-30T14:28:22.607Z,99547.69
2023-11-30T14:30:50.859Z,99556.28
2023-11-30T14:33:20.278Z,99551.00
2023-11-30T14:35:48.656Z,99553.50
2023-11-30T14:38:16.700Z,99558.59
2023-11-30T14:40:44.773Z,99557.59
2023-11-30T14:43:12.712Z,99556.69
2023-11-30T14:45:40.624Z,99554.81
2023-11-30T14:48:08.542Z,99557.38
2023-11-30T14:50:37.766Z,99549.50
2023-11-30T14:53:06.076Z,99550.34
2023-11-30T14:55:34.775Z,99555.50
2023-11-30T14:58:04.731Z,99558.94
2023-11-30T15:00:32.790Z,99551.94
2023-11-30T15:03:03.144Z,99553.66
2023-11-30T15:05:31.529Z,99546.69
2023-11-30T15:08:00.898Z,99551.03
2023-11-30T15:10:29.075Z,99545.75
2023-11-30T15:12:56.959Z,99547.47
2023-11-30T15:15:25.446Z,99547.41
2023-11-30T15:17:54.093Z,99542.16
2023-11-30T15:20:24.038Z,99551.66
2023-11-30T15:22:52.759Z,99546.41
2023-11-30T15:25:22.074Z,99559.38
2023-11-30T15:27:50.724Z,99550.66
2023-11-30T15:30:19.751Z,99554.91
2023-11-30T15:32:47.743Z,99557.47
2023-11-30T15:35:16.394Z,99553.94
2023-11-30T15:37:49.300Z,99559.13
2023-11-30T15:40:18.102Z,99559.88
2023-11-30T15:42:47.625Z,99557.22
2023-11-30T15:45:18.129Z,99555.44
2023-11-30T15:47:46.555Z,99558.88
2023-11-30T15:50:14.472Z,99559.63
2023-11-30T15:52:43.259Z,99555.22
2023-11-30T15:55:12.758Z,99556.03
2023-11-30T15:57:40.846Z,99562.06
2023-11-30T16:00:11.263Z,99551.56
2023-11-30T16:02:42.312Z,99559.31
2023-11-30T16:05:10.779Z,99560.13
2023-11-30T16:07:38.635Z,99565.19
2023-11-30T16:10:07.677Z,99562.53
2023-11-30T16:12:35.590Z,99563.25
2023-11-30T16:15:03.648Z,99566.69
2023-11-30T16:17:32.830Z,99562.25
2023-11-30T16:20:01.741Z,99569.13
2023-11-30T16:22:29.991Z,99561.22
2023-11-30T16:24:58.640Z,99563.81
2023-11-30T16:27:27.546Z,99561.13
2023-11-30T16:29:55.985Z,99563.63
2023-11-30T16:32:25.065Z,99567.09
2023-11-30T16:34:54.212Z,99560.06
2023-11-30T16:37:22.035Z,99566.06
2023-11-30T16:39:49.897Z,99571.22
2023-11-30T16:42:17.768Z,99569.44
2023-11-30T16:44:46.003Z,99562.44
2023-11-30T16:47:14.331Z,99558.88
2023-11-30T16:49:42.182Z,99568.38
2023-11-30T16:52:11.529Z,99555.31
2023-11-30T16:54:40.741Z,99570.00
2023-11-30T16:57:08.626Z,99561.31
2023-11-30T16:59:36.609Z,99556.84
2023-11-30T17:02:04.843Z,99556.78
2023-11-30T17:04:33.073Z,99559.34
2023-11-30T17:07:00.933Z,99559.28
2023-11-30T17:09:30.398Z,99559.28
2023-11-30T17:11:58.385Z,99555.72
2023-11-30T17:14:26.441Z,99561.69
2023-11-30T17:16:54.316Z,99553.81
2023-11-30T17:19:22.204Z,99556.38
2023-11-30T17:21:51.948Z,99542.34
2023-11-30T17:24:20.792Z,99550.09
2023-11-30T17:26:53.640Z,99539.56
2023-11-30T17:29:21.564Z,99540.34
2023-11-30T17:31:49.366Z,99541.16
2023-11-30T17:34:17.400Z,99535.84
2023-11-30T17:36:45.357Z,99541.00
2023-11-30T17:39:17.702Z,99545.22
2023-11-30T17:41:46.169Z,99539.91
2023-11-30T17:44:15.311Z,99534.66
2023-11-30T17:46:44.025Z,99535.47
2023-11-30T17:49:12.210Z,99533.63
2023-11-30T17:51:40.143Z,99532.69
2023-11-30T17:54:08.067Z,99530.88
2023-11-30T17:56:36.165Z,99535.16
2023-11-30T17:59:04.417Z,99533.34
2023-11-30T18:01:33.727Z,99527.22
2023-11-30T18:04:01.884Z,99527.16
2023-11-30T18:06:30.078Z,99538.34
2023-11-30T18:08:57.931Z,99528.78
2023-11-30T18:11:25.786Z,99543.41
2023-11-30T18:13:53.970Z,99538.16
2023-11-30T18:16:21.911Z,99545.94
2023-11-30T18:18:51.280Z,99544.16
2023-11-30T18:21:19.306Z,99544.06
2023-11-30T18:23:47.996Z,99552.66
2023-11-30T18:26:16.610Z,99556.06
2023-11-30T18:28:44.480Z,99551.66
2023-11-30T18:31:20.269Z,99570.66
2023-11-30T18:33:51.804Z,99566.25
2023-11-30T18:36:20.190Z,99565.31
2023-11-30T18:38:51.278Z,99568.75
2023-11-30T18:41:20.421Z,99572.13
2023-11-30T18:43:49.317Z,99571.19
2023-11-30T18:46:17.451Z,99565.94
2023-11-30T18:48:45.484Z,99563.28
2023-11-30T18:51:14.670Z,99571.94
2023-11-30T18:53:42.554Z,99572.81
2023-11-30T18:56:11.089Z,99571.88
2023-11-30T18:58:39.704Z,99570.16
2023-11-30T19:01:08.050Z,99568.38
2023-11-30T19:03:36.130Z,99572.69
2023-11-30T19:06:04.414Z,99569.22
2023-11-30T19:08:33.734Z,99558.78
2023-11-30T19:11:01.517Z,99572.63
2023-11-30T19:13:29.342Z,99562.19
2023-11-30T19:15:57.192Z,99568.25
2023-11-30T19:18:25.192Z,99563.91
2023-11-30T19:20:53.041Z,99571.69
2023-11-30T19:23:20.868Z,99571.66
2023-11-30T19:25:50.006Z,99571.66
2023-11-30T19:28:17.835Z,99561.25
2023-11-30T19:30:46.360Z,99562.06
2023-11-30T19:33:14.611Z,99561.19
2023-11-30T19:35:42.507Z,99565.53
2023-11-30T19:38:10.378Z,99563.75
2023-11-30T19:40:38.211Z,99557.66
2023-11-30T19:43:07.732Z,99561.13
2023-11-30T19:45:36.060Z,99568.94
2023-11-30T19:48:04.048Z,99564.59
2023-11-30T19:50:35.442Z,99564.53
2023-11-30T19:53:05.536Z,99567.13
2023-11-30T19:55:33.413Z,99571.41
2023-11-30T19:58:01.300Z,99567.06
2023-11-30T20:00:30.481Z,99572.25
2023-11-30T20:02:58.743Z,99579.16
2023-11-30T20:05:26.567Z,99575.63
2023-11-30T20:07:54.371Z,99574.69
2023-11-30T20:10:22.452Z,99576.41
2023-11-30T20:12:52.106Z,99572.03
2023-11-30T20:15:21.206Z,99577.13
2023-11-30T20:17:50.621Z,99579.66
2023-11-30T20:20:18.685Z,99580.50
2023-11-30T20:22:46.994Z,99583.03
2023-11-30T20:25:15.142Z,99588.22
2023-11-30T20:27:43.816Z,99589.84
2023-11-30T20:30:13.161Z,99595.03
2023-11-30T20:32:42.313Z,99593.25
2023-11-30T20:35:11.980Z,99599.22
2023-11-30T20:37:40.296Z,99599.16
2023-11-30T20:40:09.380Z,99600.84
2023-11-30T20:42:37.950Z,99593.84
2023-11-30T20:45:06.884Z,99594.66
2023-11-30T20:47:35.197Z,99609.25
2023-11-30T20:50:03.471Z,99608.31
2023-11-30T20:52:33.478Z,99611.75
2023-11-30T20:55:01.285Z,99615.94
2023-11-30T20:57:29.160Z,99608.94
2023-11-30T20:59:57.116Z,99605.41
2023-11-30T21:02:25.074Z,99616.53
2023-11-30T21:04:53.009Z,99613.06
2023-11-30T21:07:20.819Z,99610.34
2023-11-30T21:09:50.006Z,99612.06
2023-11-30T21:12:18.332Z,99614.53
2023-11-30T21:14:46.273Z,99613.72
2023-11-30T21:17:14.108Z,99610.16
2023-11-30T21:19:41.969Z,99610.13
2023-11-30T21:22:10.699Z,99610.94
2023-11-30T21:24:39.485Z,99601.44
2023-11-30T21:27:08.840Z,99614.41
2023-11-30T21:29:37.031Z,99614.34
2023-11-30T21:32:05.523Z,99624.78
2023-11-30T21:34:33.929Z,99624.84
2023-11-30T21:37:01.841Z,99621.44
2023-11-30T21:39:31.461Z,99628.38
2023-11-30T21:41:59.571Z,99627.56
2023-11-30T21:44:28.958Z,99629.34
2023-11-30T21:46:56.898Z,99630.28
2023-11-30T21:49:24.721Z,99631.16
2023-11-30T21:51:53.049Z,99625.97
2023-11-30T21:56:48.772Z,99620.84
2023-11-30T21:59:16.779Z,99619.13
2023-11-30T22:01:46.287Z,99622.63
2023-11-30T22:04:14.372Z,99624.38
2023-11-30T22:06:44.144Z,99630.44
2023-11-30T22:09:12.034Z,99620.97
2023-11-30T22:11:44.385Z,99619.31
2023-11-30T22:14:12.732Z,99621.91
2023-11-30T22:16:41.433Z,99628.88
2023-11-30T22:19:10.849Z,99622.03
2023-11-30T22:21:38.952Z,99619.44
2023-11-30T22:24:07.402Z,99624.69
2023-11-30T22:26:35.279Z,99628.97
2023-11-30T22:29:03.511Z,99626.44
2023-11-30T22:31:34.647Z,99632.53
2023-11-30T22:34:03.025Z,99633.34
2023-11-30T22:36:32.395Z,99636.81
2023-11-30T22:39:00.357Z,99630.81
2023-11-30T22:41:28.215Z,99632.53
2023-11-30T22:43:56.022Z,99629.88
2023-11-30T22:46:24.274Z,99641.94
2023-11-30T22:48:52.560Z,99641.06
2023-11-30T22:51:21.183Z,99642.78
2023-11-30T22:53:50.519Z,99647.13
2023-11-30T22:56:19.358Z,99635.88
2023-11-30T22:58:47.629Z,99642.84
2023-11-30T23:01:16.533Z,99645.50
2023-11-30T23:03:45.752Z,99650.69
2023-11-30T23:06:15.461Z,99647.25
2023-11-30T23:08:43.584Z,99648.13
2023-11-30T23:11:13.439Z,99650.72
2023-11-30T23:13:41.470Z,99646.50
2023-11-30T23:16:12.422Z,99651.69
2023-11-30T23:18:40.448Z,99638.78
2023-11-30T23:21:09.488Z,99641.41
2023-11-30T23:23:37.347Z,99650.16
2023-11-30T23:26:05.733Z,99647.63
2023-11-30T23:28:35.101Z,99645.03
2023-11-30T23:31:03.086Z,99645.09
2023-11-30T23:33:31.108Z,99646.00
2023-11-30T23:35:59.275Z,99647.75
2023-11-30T23:38:27.084Z,99642.63
2023-11-30T23:40:54.998Z,99648.69
2023-11-30T23:43:22.849Z,99656.53
2023-11-30T23:45:52.272Z,99657.44
2023-11-30T23:48:20.166Z,99652.31
2023-11-30T23:50:47.992Z,99658.38
2023-11-30T23:53:15.883Z,99652.34
2023-11-30T23:55:43.934Z,99652.41
2023-11-30T23:58:11.755Z,99644.75
